createdAt,value
2022-10-26T00:03:06.327Z,0.01
2022-10-26T00:08:18.224Z,0.002
2022-10-26T00:13:30.467Z,0.035
2022-10-26T00:18:42.430Z,0.013
2022-10-26T00:23:54.454Z,-0.011
2022-10-26T00:29:06.423Z,0.01
2022-10-26T00:34:18.426Z,0.001
2022-10-26T00:39:30.323Z,-0.004
2022-10-26T00:44:42.199Z,0.021
2022-10-26T00:49:54.140Z,0.015
2022-10-26T00:55:06.245Z,0.011
2022-10-26T01:00:18.682Z,0.003
2022-10-26T01:05:30.430Z,-0.01
2022-10-26T01:10:42.398Z,0.007
2022-10-26T01:15:54.301Z,0.02
2022-10-26T01:21:06.291Z,0.004
2022-10-26T01:26:18.199Z,0.014
2022-10-26T01:31:30.181Z,0.012
2022-10-26T01:36:44.066Z,-0.005
2022-10-26T01:41:55.233Z,-0.002
2022-10-26T01:47:07.150Z,-0.002
2022-10-26T01:52:19.024Z,-0.005
2022-10-26T01:57:31.104Z,-0.01
2022-10-26T02:02:43.030Z,0.004
2022-10-26T02:07:54.980Z,0.011
2022-10-26T02:13:06.914Z,0
2022-10-26T02:18:18.940Z,0.024
2022-10-26T02:23:30.950Z,0.016
2022-10-26T02:28:42.945Z,0.006
2022-10-26T02:33:54.814Z,0.012
2022-10-26T02:39:06.994Z,0.035
2022-10-26T02:44:18.745Z,-0.011
2022-10-26T02:49:30.721Z,0.022
2022-10-26T02:54:42.601Z,0.024
2022-10-26T02:59:54.605Z,-0.001
2022-10-26T03:05:06.680Z,0.032
2022-10-26T03:10:18.549Z,0.011
2022-10-26T03:15:30.544Z,0.022
2022-10-26T03:20:42.440Z,0.012
2022-10-26T03:25:54.330Z,0.016
2022-10-26T03:31:06.155Z,0.008
2022-10-26T03:36:17.931Z,0.003
2022-10-26T03:41:29.731Z,0.003
2022-10-26T03:46:41.685Z,0.004
2022-10-26T03:51:54.649Z,-0.007
2022-10-26T03:57:06.270Z,0.038
2022-10-26T04:02:18.106Z,0.009
2022-10-26T04:07:30.069Z,0.037
2022-10-26T04:12:42.062Z,0.018
2022-10-26T04:17:53.855Z,0.022
2022-10-26T04:23:05.979Z,0.01
2022-10-26T04:33:46.173Z,0.01
2022-10-26T04:38:57.994Z,0.014
2022-10-26T04:44:10.124Z,0.017
2022-10-26T04:49:22.196Z,-0.002
2022-10-26T04:54:34.447Z,0.028
2022-10-26T04:59:46.616Z,0.034
2022-10-26T05:04:58.761Z,0.013
2022-10-26T05:10:10.931Z,0.014
2022-10-26T05:15:23.235Z,0.011
2022-10-26T05:20:35.243Z,0.019
2022-10-26T05:25:47.461Z,0.026
2022-10-26T05:30:59.673Z,0.024
2022-10-26T05:36:11.904Z,0.006
2022-10-26T05:41:23.846Z,0
2022-10-26T05:46:37.021Z,0.053
2022-10-26T05:51:49.031Z,0.044
2022-10-26T05:57:01.318Z,0.028
2022-10-26T06:02:13.692Z,0.018
2022-10-26T06:07:26.212Z,0.023
2022-10-26T06:12:38.468Z,0.018
2022-10-26T06:17:50.694Z,0.039
2022-10-26T06:23:02.720Z,0.024
2022-10-26T06:28:15.013Z,0.019
2022-10-26T06:33:29.750Z,0.021
2022-10-26T06:38:47.825Z,0.007
2022-10-26T06:44:00.016Z,0.027
2022-10-26T06:49:12.309Z,0.026
2022-10-26T06:54:24.609Z,0.032
2022-10-26T06:59:37.336Z,0.025
2022-10-26T07:04:49.876Z,0.021
2022-10-26T07:10:02.266Z,0.041
2022-10-26T07:15:14.704Z,0.015
2022-10-26T07:20:26.923Z,0.024
2022-10-26T07:25:39.238Z,0.04
2022-10-26T07:30:55.910Z,0.034
2022-10-26T07:36:11.504Z,0.032
2022-10-26T07:41:23.755Z,0.038
2022-10-26T07:46:36.044Z,0.039
2022-10-26T07:51:48.471Z,0.068
2022-10-26T07:57:00.802Z,0.013
2022-10-26T08:02:14.304Z,0.009
2022-10-26T08:07:26.310Z,-0.012
2022-10-26T08:12:38.516Z,0.042
2022-10-26T08:17:51.250Z,0.034
2022-10-26T08:23:03.973Z,0.025
2022-10-26T08:28:16.134Z,0.038
2022-10-26T08:33:28.390Z,0.032
2022-10-26T08:38:40.819Z,0.03
2022-10-26T08:43:52.837Z,0.001
2022-10-26T08:49:05.099Z,0.058
2022-10-26T08:54:17.128Z,0.048
2022-10-26T08:59:29.414Z,0.062
2022-10-26T09:04:41.829Z,0.048
2022-10-26T09:09:53.960Z,0.033
2022-10-26T09:15:06.623Z,0.028
2022-10-26T09:20:19.086Z,0.046
2022-10-26T09:25:31.639Z,0.035
2022-10-26T09:30:43.974Z,0.045
2022-10-26T09:35:56.822Z,0.056
2022-10-26T09:41:09.278Z,0.034
2022-10-26T09:46:21.547Z,0.031
2022-10-26T09:51:33.714Z,0.039
2022-10-26T09:56:46.101Z,-0.016
2022-10-26T10:01:58.540Z,0.062
2022-10-26T10:07:11.050Z,0.061
2022-10-26T10:12:23.410Z,0.041
2022-10-26T10:17:35.795Z,0.063
2022-10-26T10:22:48.241Z,0.05
2022-10-26T10:28:00.581Z,0.012
2022-10-26T10:33:13.157Z,0.014
2022-10-26T10:38:27.292Z,0.046
2022-10-26T10:43:39.779Z,0.033
2022-10-26T10:48:52.064Z,0.058
2022-10-26T10:54:05.040Z,0.061
2022-10-26T10:59:17.850Z,0.058
2022-10-26T11:04:30.807Z,0.114
2022-10-26T11:09:45.207Z,0.498
2022-10-26T11:15:00.085Z,0.429
2022-10-26T11:25:43.365Z,0.1
2022-10-26T11:30:56.756Z,0.064
2022-10-26T11:36:09.881Z,0.12
2022-10-26T11:41:22.918Z,0.123
2022-10-26T11:46:35.728Z,0.084
2022-10-26T11:51:48.518Z,0.086
2022-10-26T11:57:01.496Z,0.209
2022-10-26T12:02:13.655Z,0.071
2022-10-26T12:12:37.457Z,0.007
2022-10-26T12:17:50.730Z,0.099
2022-10-26T12:23:04.267Z,0.072
2022-10-26T12:38:38.473Z,-0.006
2022-10-26T12:49:01.897Z,-0.009
2022-10-26T12:54:14.773Z,0.086
2022-10-26T12:59:27.884Z,-0.01
2022-10-26T13:04:40.680Z,-0.012
2022-10-26T13:20:14.011Z,0.093
2022-10-26T13:25:26.197Z,-0.015
2022-10-26T13:35:48.902Z,-0.035
2022-10-26T13:41:01.144Z,0.071
2022-10-26T13:46:13.086Z,-0.019
2022-10-26T13:56:34.631Z,0.022
2022-10-26T14:12:05.925Z,-0.035
2022-10-26T14:17:17.964Z,-0.013
2022-10-26T14:22:30.449Z,-0.047
2022-10-26T14:27:42.626Z,0.013
2022-10-26T14:38:05.029Z,-0.039
2022-10-26T14:43:17.423Z,-0.016
2022-10-26T14:48:29.691Z,-0.029
2022-10-26T14:53:42.059Z,-0.021
2022-10-26T14:58:54.478Z,-0.032
2022-10-26T15:04:06.984Z,-0.006
2022-10-26T15:09:19.430Z,-0.009
2022-10-26T15:14:31.677Z,-0.011
2022-10-26T15:19:44.091Z,-0.038
2022-10-26T15:30:06.408Z,-0.009
2022-10-26T15:40:29.864Z,-0.027
2022-10-26T15:45:41.827Z,-0.042
2022-10-26T15:50:53.922Z,-0.029
2022-10-26T16:01:16.238Z,-0.011
2022-10-26T16:06:28.992Z,-0.028
2022-10-26T16:11:40.972Z,-0.024
2022-10-26T16:16:52.942Z,-0.043
2022-10-26T16:27:14.672Z,-0.031
2022-10-26T16:37:36.422Z,-0.013
2022-10-26T16:47:58.139Z,-0.023
2022-10-26T16:53:10.163Z,-0.023
2022-10-26T16:58:22.102Z,0.036
2022-10-26T17:03:34.137Z,0.023
2022-10-26T17:08:46.208Z,-0.03
2022-10-26T17:13:58.384Z,0.01
2022-10-26T17:19:10.600Z,-0.025
2022-10-26T17:24:23.833Z,-0.012
2022-10-26T17:34:45.603Z,0.017
2022-10-26T17:39:57.914Z,-0.029
2022-10-26T17:45:10.043Z,0.007
2022-10-26T17:50:22.196Z,-0.002
2022-10-26T17:55:34.158Z,-0.01
2022-10-26T18:00:47.906Z,-0.01
2022-10-26T18:06:01.422Z,0.007
2022-10-26T18:11:13.662Z,0
2022-10-26T18:16:28.553Z,-0.032
2022-10-26T18:21:39.939Z,0.007
2022-10-26T18:26:51.964Z,-0.004
2022-10-26T18:32:04.171Z,-0.012
2022-10-26T18:37:16.599Z,0.009
2022-10-26T18:42:28.548Z,0.005
2022-10-26T18:47:40.845Z,-0.048
2022-10-26T18:52:52.872Z,0.005
2022-10-26T18:58:05.290Z,-0.029
2022-10-26T19:03:17.418Z,0.013
2022-10-26T19:08:30.865Z,0.019
2022-10-26T19:13:42.896Z,0.026
2022-10-26T19:24:07.356Z,0.002
2022-10-26T19:29:19.407Z,0.016
2022-10-26T19:34:32.054Z,-0.003
2022-10-26T19:39:44.179Z,0.017
2022-10-26T19:44:55.989Z,-0.006
2022-10-26T19:50:08.154Z,0.001
2022-10-26T19:55:19.913Z,0.01
2022-10-26T20:00:32.215Z,-0.006
2022-10-26T20:05:44.701Z,-0.001
2022-10-26T20:10:56.624Z,-0.006
2022-10-26T20:16:10.739Z,-0.002
2022-10-26T20:21:22.842Z,-0.009
2022-10-26T20:26:34.741Z,0.005
2022-10-26T20:31:46.839Z,0.013
2022-10-26T20:37:05.306Z,-0.003
2022-10-26T20:42:18.392Z,-0.003
2022-10-26T20:47:33.902Z,-0.008
2022-10-26T20:52:45.907Z,-0.024
2022-10-26T20:57:58.185Z,-0.015
2022-10-26T21:03:10.063Z,0
2022-10-26T21:08:21.997Z,0.008
2022-10-26T21:13:33.770Z,0.011
2022-10-26T21:18:45.904Z,-0.024
2022-10-26T21:23:58.032Z,0.021
2022-10-26T21:29:09.959Z,0.017
2022-10-26T21:34:22.089Z,0.015
2022-10-26T21:39:33.989Z,0.009
2022-10-26T21:44:46.163Z,0.016
2022-10-26T21:49:58.251Z,-0.01
2022-10-26T21:55:10.027Z,0.018
2022-10-26T22:00:22.028Z,0.013
2022-10-26T22:05:33.901Z,0.001
2022-10-26T22:10:57.498Z,0.002
2022-10-26T22:16:08.337Z,-0.015
2022-10-26T22:21:20.293Z,0.022
2022-10-26T22:26:32.307Z,-0.022
2022-10-26T22:31:44.198Z,0.028
2022-10-26T22:36:56.092Z,-0.017
2022-10-26T22:42:07.949Z,0.007
2022-10-26T22:47:19.823Z,0.015
2022-10-26T22:52:31.694Z,0.015
2022-10-26T22:57:43.673Z,-0.004
2022-10-26T23:02:55.698Z,-0.003
2022-10-26T23:08:07.560Z,0.016
2022-10-26T23:13:19.217Z,0.013
2022-10-26T23:18:31.092Z,0.01
2022-10-26T23:23:42.912Z,-0.002
2022-10-26T23:28:54.910Z,0
2022-10-26T23:34:06.874Z,-0.035
2022-10-26T23:39:18.981Z,0.007
2022-10-26T23:44:30.959Z,0
2022-10-26T23:49:42.858Z,-0.007
2022-10-26T23:54:54.914Z,0.006
